sensor_id;sensor_type;location;lat;lon;timestamp;P1;durP1;ratioP1;P2;durP2;ratioP2
11691;SDS011;33659;42.672;23.354;2024-03-23T00:53:04;18.33;;;9.00;;
11691;SDS011;33659;42.672;23.354;2024-03-23T00:55:30;15.80;;;9.63;;
11691;SDS011;33659;42.672;23.354;2024-03-23T00:57:56;19.57;;;9.70;;
11691;SDS011;33659;42.672;23.354;2024-03-23T01:00:23;22.90;;;9.60;;
11691;SDS011;33659;42.672;23.354;2024-03-23T01:02:48;16.07;;;9.57;;
11691;SDS011;33659;42.672;23.354;2024-03-23T01:05:15;15.57;;;9.00;;
11691;SDS011;33659;42.672;23.354;2024-03-23T01:07:41;22.17;;;9.30;;
11691;SDS011;33659;42.672;23.354;2024-03-23T01:10:09;18.87;;;9.20;;
11691;SDS011;33659;42.672;23.354;2024-03-23T01:12:35;15.07;;;8.30;;
11691;SDS011;33659;42.672;23.354;2024-03-23T01:15:01;23.17;;;9.97;;
11691;SDS011;33659;42.672;23.354;2024-03-23T01:17:27;19.17;;;9.10;;
11691;SDS011;33659;42.672;23.354;2024-03-23T01:19:54;14.90;;;8.73;;
11691;SDS011;33659;42.672;23.354;2024-03-23T01:22:20;14.23;;;8.80;;
11691;SDS011;33659;42.672;23.354;2024-03-23T01:24:46;16.63;;;8.70;;
11691;SDS011;33659;42.672;23.354;2024-03-23T01:27:13;13.60;;;7.57;;
11691;SDS011;33659;42.672;23.354;2024-03-23T01:29:40;16.40;;;8.23;;
11691;SDS011;33659;42.672;23.354;2024-03-23T01:32:06;14.33;;;8.13;;
11691;SDS011;33659;42.672;23.354;2024-03-23T01:34:33;11.30;;;7.20;;
11691;SDS011;33659;42.672;23.354;2024-03-23T01:36:58;23.50;;;7.90;;
11691;SDS011;33659;42.672;23.354;2024-03-23T01:39:25;14.70;;;8.57;;
11691;SDS011;33659;42.672;23.354;2024-03-23T01:41:51;13.13;;;7.30;;
11691;SDS011;33659;42.672;23.354;2024-03-23T01:44:19;13.30;;;7.00;;
11691;SDS011;33659;42.672;23.354;2024-03-23T01:46:45;14.57;;;7.00;;
11691;SDS011;33659;42.672;23.354;2024-03-23T01:49:12;14.60;;;8.17;;
11691;SDS011;33659;42.672;23.354;2024-03-23T01:51:38;13.30;;;7.27;;
11691;SDS011;33659;42.672;23.354;2024-03-23T01:54:05;13.70;;;7.27;;
11691;SDS011;33659;42.672;23.354;2024-03-23T01:56:32;10.10;;;6.40;;
11691;SDS011;33659;42.672;23.354;2024-03-23T01:59:00;12.67;;;7.17;;
11691;SDS011;33659;42.672;23.354;2024-03-23T02:01:27;13.17;;;7.50;;
11691;SDS011;33659;42.672;23.354;2024-03-23T02:03:54;15.60;;;7.63;;
11691;SDS011;33659;42.672;23.354;2024-03-23T02:06:20;10.83;;;6.63;;
11691;SDS011;33659;42.672;23.354;2024-03-23T02:08:47;14.30;;;7.40;;
11691;SDS011;33659;42.672;23.354;2024-03-23T02:11:13;12.43;;;7.70;;
11691;SDS011;33659;42.672;23.354;2024-03-23T02:13:40;13.00;;;7.83;;
11691;SDS011;33659;42.672;23.354;2024-03-23T02:16:05;10.17;;;7.10;;
11691;SDS011;33659;42.672;23.354;2024-03-23T02:18:34;17.47;;;8.40;;
11691;SDS011;33659;42.672;23.354;2024-03-23T02:20:59;13.70;;;7.43;;
11691;SDS011;33659;42.672;23.354;2024-03-23T02:23:27;12.83;;;8.03;;
11691;SDS011;33659;42.672;23.354;2024-03-23T02:25:53;15.43;;;8.63;;
11691;SDS011;33659;42.672;23.354;2024-03-23T02:28:20;17.53;;;8.73;;
11691;SDS011;33659;42.672;23.354;2024-03-23T02:30:47;16.90;;;8.27;;
11691;SDS011;33659;42.672;23.354;2024-03-23T02:33:14;15.33;;;8.63;;
11691;SDS011;33659;42.672;23.354;2024-03-23T02:35:40;14.77;;;7.77;;
11691;SDS011;33659;42.672;23.354;2024-03-23T02:38:06;14.07;;;8.03;;
11691;SDS011;33659;42.672;23.354;2024-03-23T02:40:33;10.23;;;6.13;;
11691;SDS011;33659;42.672;23.354;2024-03-23T02:43:02;15.57;;;7.40;;
11691;SDS011;33659;42.672;23.354;2024-03-23T02:45:27;12.83;;;8.13;;
11691;SDS011;33659;42.672;23.354;2024-03-23T02:47:54;18.93;;;8.50;;
11691;SDS011;33659;42.672;23.354;2024-03-23T02:50:20;20.33;;;9.73;;
11691;SDS011;33659;42.672;23.354;2024-03-23T02:52:47;17.20;;;9.17;;
11691;SDS011;33659;42.672;23.354;2024-03-23T02:55:13;21.80;;;9.43;;
11691;SDS011;33659;42.672;23.354;2024-03-23T02:57:41;14.47;;;8.90;;
11691;SDS011;33659;42.672;23.354;2024-03-23T03:00:07;18.27;;;8.97;;
11691;SDS011;33659;42.672;23.354;2024-03-23T03:02:36;15.43;;;8.93;;
11691;SDS011;33659;42.672;23.354;2024-03-23T03:05:02;20.13;;;9.20;;
11691;SDS011;33659;42.672;23.354;2024-03-23T03:07:30;14.00;;;8.67;;
11691;SDS011;33659;42.672;23.354;2024-03-23T03:09:55;13.70;;;8.53;;
11691;SDS011;33659;42.672;23.354;2024-03-23T03:12:22;15.43;;;9.23;;
11691;SDS011;33659;42.672;23.354;2024-03-23T03:14:50;16.43;;;8.43;;
11691;SDS011;33659;42.672;23.354;2024-03-23T03:17:16;14.50;;;8.67;;
11691;SDS011;33659;42.672;23.354;2024-03-23T03:19:42;16.13;;;9.00;;
11691;SDS011;33659;42.672;23.354;2024-03-23T03:22:08;16.43;;;9.47;;
11691;SDS011;33659;42.672;23.354;2024-03-23T03:24:34;14.87;;;9.27;;
11691;SDS011;33659;42.672;23.354;2024-03-23T03:27:00;16.37;;;9.30;;
11691;SDS011;33659;42.672;23.354;2024-03-23T03:29:28;14.10;;;8.17;;
11691;SDS011;33659;42.672;23.354;2024-03-23T03:32:01;13.87;;;9.00;;
11691;SDS011;33659;42.672;23.354;2024-03-23T03:34:28;18.27;;;9.30;;
11691;SDS011;33659;42.672;23.354;2024-03-23T03:36:54;13.23;;;8.67;;
11691;SDS011;33659;42.672;23.354;2024-03-23T03:39:21;15.23;;;8.77;;
11691;SDS011;33659;42.672;23.354;2024-03-23T03:41:47;13.37;;;8.17;;
11691;SDS011;33659;42.672;23.354;2024-03-23T03:44:14;14.77;;;8.57;;
11691;SDS011;33659;42.672;23.354;2024-03-23T03:46:40;12.40;;;8.10;;
11691;SDS011;33659;42.672;23.354;2024-03-23T03:49:08;15.20;;;8.80;;
11691;SDS011;33659;42.672;23.354;2024-03-23T03:51:34;17.87;;;8.27;;
11691;SDS011;33659;42.672;23.354;2024-03-23T03:54:00;17.70;;;8.30;;
11691;SDS011;33659;42.672;23.354;2024-03-23T03:56:26;15.07;;;8.23;;
11691;SDS011;33659;42.672;23.354;2024-03-23T03:58:53;12.40;;;7.80;;
11691;SDS011;33659;42.672;23.354;2024-03-23T04:01:19;13.97;;;8.03;;
11691;SDS011;33659;42.672;23.354;2024-03-23T04:03:46;13.97;;;7.83;;
11691;SDS011;33659;42.672;23.354;2024-03-23T04:06:15;14.43;;;8.00;;
11691;SDS011;33659;42.672;23.354;2024-03-23T04:08:45;13.27;;;8.27;;
11691;SDS011;33659;42.672;23.354;2024-03-23T04:11:10;12.60;;;8.10;;
11691;SDS011;33659;42.672;23.354;2024-03-23T04:13:37;13.33;;;8.13;;
11691;SDS011;33659;42.672;23.354;2024-03-23T04:16:03;13.47;;;6.97;;
11691;SDS011;33659;42.672;23.354;2024-03-23T04:18:30;17.23;;;7.93;;
11691;SDS011;33659;42.672;23.354;2024-03-23T04:20:56;14.07;;;7.30;;
11691;SDS011;33659;42.672;23.354;2024-03-23T04:23:24;12.00;;;7.00;;
11691;SDS011;33659;42.672;23.354;2024-03-23T04:25:50;18.10;;;7.43;;
11691;SDS011;33659;42.672;23.354;2024-03-23T04:28:18;11.83;;;7.23;;
11691;SDS011;33659;42.672;23.354;2024-03-23T04:30:44;14.87;;;7.20;;
11691;SDS011;33659;42.672;23.354;2024-03-23T04:33:10;13.13;;;7.30;;
11691;SDS011;33659;42.672;23.354;2024-03-23T04:35:36;11.77;;;6.40;;
11691;SDS011;33659;42.672;23.354;2024-03-23T04:38:03;15.10;;;8.10;;
11691;SDS011;33659;42.672;23.354;2024-03-23T04:40:31;15.53;;;6.87;;
11691;SDS011;33659;42.672;23.354;2024-03-23T04:42:58;12.17;;;6.97;;
11691;SDS011;33659;42.672;23.354;2024-03-23T04:45:26;11.60;;;6.67;;
11691;SDS011;33659;42.672;23.354;2024-03-23T04:47:52;13.80;;;7.10;;
11691;SDS011;33659;42.672;23.354;2024-03-23T04:50:19;10.93;;;6.60;;
11691;SDS011;33659;42.672;23.354;2024-03-23T04:52:45;12.10;;;6.47;;
11691;SDS011;33659;42.672;23.354;2024-03-23T04:55:12;9.53;;;5.90;;
11691;SDS011;33659;42.672;23.354;2024-03-23T04:57:40;12.77;;;7.07;;
11691;SDS011;33659;42.672;23.354;2024-03-23T05:00:07;13.33;;;7.00;;
11691;SDS011;33659;42.672;23.354;2024-03-23T05:02:43;14.40;;;7.47;;
11691;SDS011;33659;42.672;23.354;2024-03-23T05:05:10;12.47;;;6.60;;
11691;SDS011;33659;42.672;23.354;2024-03-23T05:07:37;15.33;;;6.73;;
11691;SDS011;33659;42.672;23.354;2024-03-23T05:10:04;12.53;;;7.27;;
11691;SDS011;33659;42.672;23.354;2024-03-23T05:12:30;10.90;;;6.77;;
11691;SDS011;33659;42.672;23.354;2024-03-23T05:14:58;12.57;;;7.70;;
11691;SDS011;33659;42.672;23.354;2024-03-23T05:17:24;15.27;;;7.47;;
11691;SDS011;33659;42.672;23.354;2024-03-23T05:19:51;13.57;;;7.77;;
11691;SDS011;33659;42.672;23.354;2024-03-23T05:22:16;13.93;;;7.43;;
11691;SDS011;33659;42.672;23.354;2024-03-23T05:24:44;10.63;;;6.67;;
11691;SDS011;33659;42.672;23.354;2024-03-23T05:27:10;13.97;;;7.87;;
11691;SDS011;33659;42.672;23.354;2024-03-23T05:29:37;14.40;;;7.57;;
11691;SDS011;33659;42.672;23.354;2024-03-23T05:32:04;12.33;;;7.57;;
11691;SDS011;33659;42.672;23.354;2024-03-23T05:34:31;14.70;;;7.17;;
11691;SDS011;33659;42.672;23.354;2024-03-23T05:36:57;11.30;;;5.80;;
11691;SDS011;33659;42.672;23.354;2024-03-23T05:39:23;8.47;;;5.37;;
11691;SDS011;33659;42.672;23.354;2024-03-23T05:41:49;9.37;;;6.07;;
11691;SDS011;33659;42.672;23.354;2024-03-23T05:44:16;12.13;;;6.23;;
11691;SDS011;33659;42.672;23.354;2024-03-23T05:46:41;9.97;;;6.47;;
11691;SDS011;33659;42.672;23.354;2024-03-23T05:49:15;12.33;;;5.50;;
11691;SDS011;33659;42.672;23.354;2024-03-23T05:51:41;10.37;;;6.03;;
11691;SDS011;33659;42.672;23.354;2024-03-23T05:54:07;7.80;;;4.87;;
11691;SDS011;33659;42.672;23.354;2024-03-23T05:56:34;11.90;;;4.83;;
11691;SDS011;33659;42.672;23.354;2024-03-23T05:59:00;9.97;;;5.10;;
11691;SDS011;33659;42.672;23.354;2024-03-23T06:01:28;9.43;;;5.53;;
11691;SDS011;33659;42.672;23.354;2024-03-23T06:03:54;8.73;;;5.73;;
11691;SDS011;33659;42.672;23.354;2024-03-23T06:06:22;7.33;;;5.77;;
11691;SDS011;33659;42.672;23.354;2024-03-23T06:08:48;7.83;;;5.33;;
11691;SDS011;33659;42.672;23.354;2024-03-23T06:11:14;7.53;;;5.57;;
11691;SDS011;33659;42.672;23.354;2024-03-23T06:13:40;12.40;;;5.90;;
11691;SDS011;33659;42.672;23.354;2024-03-23T06:16:06;11.23;;;6.43;;
11691;SDS011;33659;42.672;23.354;2024-03-23T06:18:32;10.67;;;5.80;;
11691;SDS011;33659;42.672;23.354;2024-03-23T06:20:59;11.10;;;6.30;;
11691;SDS011;33659;42.672;23.354;2024-03-23T06:23:26;8.33;;;5.43;;
11691;SDS011;33659;42.672;23.354;2024-03-23T06:25:52;12.77;;;5.83;;
11691;SDS011;33659;42.672;23.354;2024-03-23T06:28:18;8.83;;;5.80;;
11691;SDS011;33659;42.672;23.354;2024-03-23T06:30:46;11.83;;;5.70;;
11691;SDS011;33659;42.672;23.354;2024-03-23T06:33:11;10.63;;;6.83;;
11691;SDS011;33659;42.672;23.354;2024-03-23T06:35:38;9.80;;;6.00;;
11691;SDS011;33659;42.672;23.354;2024-03-23T06:38:04;10.50;;;6.17;;
11691;SDS011;33659;42.672;23.354;2024-03-23T06:40:32;13.30;;;5.97;;
11691;SDS011;33659;42.672;23.354;2024-03-23T06:42:57;9.43;;;5.90;;
11691;SDS011;33659;42.672;23.354;2024-03-23T06:45:24;10.57;;;6.17;;
11691;SDS011;33659;42.672;23.354;2024-03-23T06:47:50;8.90;;;6.43;;
11691;SDS011;33659;42.672;23.354;2024-03-23T06:50:17;9.60;;;5.50;;
11691;SDS011;33659;42.672;23.354;2024-03-23T06:52:43;13.80;;;6.37;;
11691;SDS011;33659;42.672;23.354;2024-03-23T06:55:09;9.77;;;6.13;;
11691;SDS011;33659;42.672;23.354;2024-03-23T06:57:36;10.30;;;6.40;;
11691;SDS011;33659;42.672;23.354;2024-03-23T07:00:03;8.93;;;6.00;;
11691;SDS011;33659;42.672;23.354;2024-03-23T07:02:30;17.53;;;6.37;;
11691;SDS011;33659;42.672;23.354;2024-03-23T07:04:56;9.23;;;6.23;;
11691;SDS011;33659;42.672;23.354;2024-03-23T07:07:22;10.53;;;5.87;;
11691;SDS011;33659;42.672;23.354;2024-03-23T07:09:49;9.73;;;5.57;;
11691;SDS011;33659;42.672;23.354;2024-03-23T07:12:14;11.90;;;6.33;;
11691;SDS011;33659;42.672;23.354;2024-03-23T07:14:42;10.97;;;6.43;;
11691;SDS011;33659;42.672;23.354;2024-03-23T07:17:08;9.80;;;6.10;;
11691;SDS011;33659;42.672;23.354;2024-03-23T07:19:36;11.23;;;6.60;;
11691;SDS011;33659;42.672;23.354;2024-03-23T07:22:01;14.20;;;6.60;;
11691;SDS011;33659;42.672;23.354;2024-03-23T07:24:28;9.50;;;6.60;;
11691;SDS011;33659;42.672;23.354;2024-03-23T07:26:55;8.90;;;5.67;;
11691;SDS011;33659;42.672;23.354;2024-03-23T07:29:23;12.83;;;6.80;;
11691;SDS011;33659;42.672;23.354;2024-03-23T07:31:50;14.07;;;6.17;;
11691;SDS011;33659;42.672;23.354;2024-03-23T07:34:16;13.60;;;6.93;;
11691;SDS011;33659;42.672;23.354;2024-03-23T07:36:42;10.73;;;6.70;;
11691;SDS011;33659;42.672;23.354;2024-03-23T07:39:09;11.07;;;6.70;;
11691;SDS011;33659;42.672;23.354;2024-03-23T07:41:34;12.07;;;7.40;;
11691;SDS011;33659;42.672;23.354;2024-03-23T07:44:01;12.47;;;7.03;;
11691;SDS011;33659;42.672;23.354;2024-03-23T07:46:27;11.33;;;7.27;;
11691;SDS011;33659;42.672;23.354;2024-03-23T07:48:55;9.73;;;7.03;;
11691;SDS011;33659;42.672;23.354;2024-03-23T07:51:21;13.67;;;6.90;;
11691;SDS011;33659;42.672;23.354;2024-03-23T07:53:48;11.83;;;7.13;;
11691;SDS011;33659;42.672;23.354;2024-03-23T07:56:15;10.07;;;7.67;;
11691;SDS011;33659;42.672;23.354;2024-03-23T07:58:43;12.33;;;7.37;;
11691;SDS011;33659;42.672;23.354;2024-03-23T08:01:10;13.67;;;7.73;;
11691;SDS011;33659;42.672;23.354;2024-03-23T08:03:38;12.90;;;7.77;;
11691;SDS011;33659;42.672;23.354;2024-03-23T08:06:10;9.90;;;7.20;;
11691;SDS011;33659;42.672;23.354;2024-03-23T08:08:38;11.30;;;7.30;;
11691;SDS011;33659;42.672;23.354;2024-03-23T08:11:05;11.87;;;7.77;;
11691;SDS011;33659;42.672;23.354;2024-03-23T08:13:32;13.57;;;7.70;;
11691;SDS011;33659;42.672;23.354;2024-03-23T08:15:58;16.20;;;8.43;;
11691;SDS011;33659;42.672;23.354;2024-03-23T08:18:25;15.17;;;8.13;;
11691;SDS011;33659;42.672;23.354;2024-03-23T08:20:57;14.77;;;7.70;;
11691;SDS011;33659;42.672;23.354;2024-03-23T08:23:26;14.57;;;8.37;;
11691;SDS011;33659;42.672;23.354;2024-03-23T08:25:57;16.50;;;8.40;;
11691;SDS011;33659;42.672;23.354;2024-03-23T08:28:24;14.30;;;8.10;;
11691;SDS011;33659;42.672;23.354;2024-03-23T08:30:50;16.80;;;7.97;;
11691;SDS011;33659;42.672;23.354;2024-03-23T08:33:16;14.20;;;8.43;;
11691;SDS011;33659;42.672;23.354;2024-03-23T08:35:42;11.97;;;7.20;;
11691;SDS011;33659;42.672;23.354;2024-03-23T08:38:09;15.63;;;8.37;;
11691;SDS011;33659;42.672;23.354;2024-03-23T08:40:36;14.50;;;8.23;;
11691;SDS011;33659;42.672;23.354;2024-03-23T08:43:02;16.87;;;8.80;;
11691;SDS011;33659;42.672;23.354;2024-03-23T08:45:28;13.23;;;8.02;;
11691;SDS011;33659;42.672;23.354;2024-03-23T08:47:55;12.60;;;8.13;;
11691;SDS011;33659;42.672;23.354;2024-03-23T08:50:20;14.73;;;8.20;;
11691;SDS011;33659;42.672;23.354;2024-03-23T08:52:48;11.80;;;7.57;;
11691;SDS011;33659;42.672;23.354;2024-03-23T08:55:16;13.37;;;7.47;;
11691;SDS011;33659;42.672;23.354;2024-03-23T08:57:44;14.10;;;8.43;;
11691;SDS011;33659;42.672;23.354;2024-03-23T09:00:10;13.53;;;7.40;;
11691;SDS011;33659;42.672;23.354;2024-03-23T09:02:37;14.60;;;8.40;;
11691;SDS011;33659;42.672;23.354;2024-03-23T09:05:03;14.87;;;7.30;;
11691;SDS011;33659;42.672;23.354;2024-03-23T09:07:30;11.67;;;7.43;;
11691;SDS011;33659;42.672;23.354;2024-03-23T09:09:56;13.70;;;7.83;;
11691;SDS011;33659;42.672;23.354;2024-03-23T09:12:23;14.23;;;7.07;;
11691;SDS011;33659;42.672;23.354;2024-03-23T09:14:50;13.43;;;7.13;;
11691;SDS011;33659;42.672;23.354;2024-03-23T09:17:18;11.43;;;7.33;;
11691;SDS011;33659;42.672;23.354;2024-03-23T09:19:44;12.27;;;7.03;;
11691;SDS011;33659;42.672;23.354;2024-03-23T09:22:10;11.40;;;6.77;;
11691;SDS011;33659;42.672;23.354;2024-03-23T09:24:36;10.13;;;7.20;;
11691;SDS011;33659;42.672;23.354;2024-03-23T09:27:03;13.93;;;7.50;;
11691;SDS011;33659;42.672;23.354;2024-03-23T09:29:29;14.52;;;7.45;;
11691;SDS011;33659;42.672;23.354;2024-03-23T09:31:57;11.30;;;6.97;;
11691;SDS011;33659;42.672;23.354;2024-03-23T09:34:22;11.23;;;7.13;;
11691;SDS011;33659;42.672;23.354;2024-03-23T09:36:50;13.03;;;6.87;;
11691;SDS011;33659;42.672;23.354;2024-03-23T09:39:16;8.73;;;5.87;;
11691;SDS011;33659;42.672;23.354;2024-03-23T09:41:43;12.30;;;7.27;;
11691;SDS011;33659;42.672;23.354;2024-03-23T09:44:09;12.43;;;6.77;;
11691;SDS011;33659;42.672;23.354;2024-03-23T09:46:35;11.53;;;7.03;;
11691;SDS011;33659;42.672;23.354;2024-03-23T09:49:02;16.77;;;6.65;;
11691;SDS011;33659;42.672;23.354;2024-03-23T09:51:30;12.85;;;7.43;;
11691;SDS011;33659;42.672;23.354;2024-03-23T09:53:56;16.05;;;7.13;;
11691;SDS011;33659;42.672;23.354;2024-03-23T09:56:23;12.93;;;6.95;;
11691;SDS011;33659;42.672;23.354;2024-03-23T09:58:48;12.48;;;7.00;;
11691;SDS011;33659;42.672;23.354;2024-03-23T10:01:15;11.90;;;7.13;;
11691;SDS011;33659;42.672;23.354;2024-03-23T10:03:42;12.80;;;6.95;;
11691;SDS011;33659;42.672;23.354;2024-03-23T10:06:11;12.45;;;6.63;;
11691;SDS011;33659;42.672;23.354;2024-03-23T10:08:36;10.32;;;6.20;;
11691;SDS011;33659;42.672;23.354;2024-03-23T10:11:12;9.60;;;6.93;;
11691;SDS011;33659;42.672;23.354;2024-03-23T10:13:38;11.98;;;6.03;;
11691;SDS011;33659;42.672;23.354;2024-03-23T10:16:07;11.55;;;6.95;;
11691;SDS011;33659;42.672;23.354;2024-03-23T10:18:36;25.00;;;7.38;;
11691;SDS011;33659;42.672;23.354;2024-03-23T10:21:06;11.38;;;6.63;;
11691;SDS011;33659;42.672;23.354;2024-03-23T10:23:35;14.07;;;6.88;;
11691;SDS011;33659;42.672;23.354;2024-03-23T10:26:12;10.00;;;6.72;;
11691;SDS011;33659;42.672;23.354;2024-03-23T10:28:43;11.10;;;6.00;;
11691;SDS011;33659;42.672;23.354;2024-03-23T10:31:17;11.05;;;5.72;;
11691;SDS011;33659;42.672;23.354;2024-03-23T10:33:44;11.57;;;5.28;;
11691;SDS011;33659;42.672;23.354;2024-03-23T10:36:12;8.98;;;5.70;;
11691;SDS011;33659;42.672;23.354;2024-03-23T10:38:39;11.55;;;5.57;;
11691;SDS011;33659;42.672;23.354;2024-03-23T10:41:07;10.25;;;6.50;;
11691;SDS011;33659;42.672;23.354;2024-03-23T10:43:34;7.97;;;5.90;;
11691;SDS011;33659;42.672;23.354;2024-03-23T10:46:02;10.93;;;5.00;;
11691;SDS011;33659;42.672;23.354;2024-03-23T10:48:29;12.77;;;6.30;;
11691;SDS011;33659;42.672;23.354;2024-03-23T10:50:55;7.20;;;4.90;;
11691;SDS011;33659;42.672;23.354;2024-03-23T10:53:21;10.07;;;5.25;;
11691;SDS011;33659;42.672;23.354;2024-03-23T10:55:52;8.00;;;5.10;;
11691;SDS011;33659;42.672;23.354;2024-03-23T10:58:21;10.35;;;4.93;;
11691;SDS011;33659;42.672;23.354;2024-03-23T11:00:50;8.07;;;5.30;;
11691;SDS011;33659;42.672;23.354;2024-03-23T11:03:29;8.45;;;5.55;;
11691;SDS011;33659;42.672;23.354;2024-03-23T11:05:55;10.95;;;5.70;;
11691;SDS011;33659;42.672;23.354;2024-03-23T11:08:29;10.35;;;6.07;;
11691;SDS011;33659;42.672;23.354;2024-03-23T11:11:08;7.70;;;4.65;;
11691;SDS011;33659;42.672;23.354;2024-03-23T11:13:38;9.43;;;5.18;;
11691;SDS011;33659;42.672;23.354;2024-03-23T11:16:12;8.07;;;5.00;;
11691;SDS011;33659;42.672;23.354;2024-03-23T11:18:40;7.95;;;5.55;;
11691;SDS011;33659;42.672;23.354;2024-03-23T11:21:07;9.73;;;4.85;;
11691;SDS011;33659;42.672;23.354;2024-03-23T11:23:33;14.30;;;5.20;;
11691;SDS011;33659;42.672;23.354;2024-03-23T11:25:59;11.07;;;5.68;;
11691;SDS011;33659;42.672;23.354;2024-03-23T11:28:27;8.48;;;5.13;;
11691;SDS011;33659;42.672;23.354;2024-03-23T11:30:53;9.70;;;5.47;;
11691;SDS011;33659;42.672;23.354;2024-03-23T11:33:19;8.30;;;4.97;;
11691;SDS011;33659;42.672;23.354;2024-03-23T11:35:45;8.27;;;4.97;;
11691;SDS011;33659;42.672;23.354;2024-03-23T11:38:12;7.90;;;4.70;;
11691;SDS011;33659;42.672;23.354;2024-03-23T11:40:39;11.20;;;5.15;;
11691;SDS011;33659;42.672;23.354;2024-03-23T11:43:08;9.05;;;4.57;;
11691;SDS011;33659;42.672;23.354;2024-03-23T11:45:37;6.78;;;4.80;;
11691;SDS011;33659;42.672;23.354;2024-03-23T11:48:05;7.55;;;4.55;;
11691;SDS011;33659;42.672;23.354;2024-03-23T11:50:32;8.10;;;5.00;;
11691;SDS011;33659;42.672;23.354;2024-03-23T11:53:08;8.93;;;4.75;;
11691;SDS011;33659;42.672;23.354;2024-03-23T11:55:39;7.95;;;4.78;;
11691;SDS011;33659;42.672;23.354;2024-03-23T11:58:07;5.00;;;4.30;;
11691;SDS011;33659;42.672;23.354;2024-03-23T12:00:33;6.15;;;4.75;;
11691;SDS011;33659;42.672;23.354;2024-03-23T12:03:01;7.03;;;4.50;;
11691;SDS011;33659;42.672;23.354;2024-03-23T12:05:27;5.45;;;4.15;;
11691;SDS011;33659;42.672;23.354;2024-03-23T12:07:55;6.30;;;4.40;;
11691;SDS011;33659;42.672;23.354;2024-03-23T12:10:40;7.45;;;4.70;;
11691;SDS011;33659;42.672;23.354;2024-03-23T12:13:06;6.20;;;4.72;;
11691;SDS011;33659;42.672;23.354;2024-03-23T12:15:33;9.77;;;5.03;;
11691;SDS011;33659;42.672;23.354;2024-03-23T12:18:09;6.75;;;4.60;;
11691;SDS011;33659;42.672;23.354;2024-03-23T12:20:37;7.22;;;3.95;;
11691;SDS011;33659;42.672;23.354;2024-03-23T12:23:09;6.60;;;4.65;;
11691;SDS011;33659;42.672;23.354;2024-03-23T12:25:37;5.95;;;4.05;;
11691;SDS011;33659;42.672;23.354;2024-03-23T12:28:04;5.10;;;3.60;;
11691;SDS011;33659;42.672;23.354;2024-03-23T12:30:33;4.25;;;3.45;;
11691;SDS011;33659;42.672;23.354;2024-03-23T12:32:59;3.90;;;3.30;;
11691;SDS011;33659;42.672;23.354;2024-03-23T12:35:27;5.47;;;3.67;;
11691;SDS011;33659;42.672;23.354;2024-03-23T12:37:53;5.38;;;3.30;;
11691;SDS011;33659;42.672;23.354;2024-03-23T12:40:20;5.60;;;3.60;;
11691;SDS011;33659;42.672;23.354;2024-03-23T12:42:45;5.45;;;3.67;;
11691;SDS011;33659;42.672;23.354;2024-03-23T12:45:12;5.03;;;2.97;;
11691;SDS011;33659;42.672;23.354;2024-03-23T12:47:38;6.00;;;3.35;;
11691;SDS011;33659;42.672;23.354;2024-03-23T12:50:05;7.38;;;3.20;;
11691;SDS011;33659;42.672;23.354;2024-03-23T12:52:33;5.25;;;3.42;;
11691;SDS011;33659;42.672;23.354;2024-03-23T12:55:00;5.32;;;3.38;;
11691;SDS011;33659;42.672;23.354;2024-03-23T12:57:25;5.75;;;3.33;;
11691;SDS011;33659;42.672;23.354;2024-03-23T12:59:53;5.05;;;2.72;;
11691;SDS011;33659;42.672;23.354;2024-03-23T13:02:19;9.65;;;2.78;;
11691;SDS011;33659;42.672;23.354;2024-03-23T13:04:46;4.55;;;3.03;;
11691;SDS011;33659;42.672;23.354;2024-03-23T13:07:14;4.97;;;2.40;;
11691;SDS011;33659;42.672;23.354;2024-03-23T13:09:42;3.22;;;1.85;;
11691;SDS011;33659;42.672;23.354;2024-03-23T13:12:08;1.95;;;1.45;;
11691;SDS011;33659;42.672;23.354;2024-03-23T13:14:37;1.77;;;1.65;;
11691;SDS011;33659;42.672;23.354;2024-03-23T13:17:03;5.10;;;1.90;;
11691;SDS011;33659;42.672;23.354;2024-03-23T13:19:29;2.63;;;2.17;;
11691;SDS011;33659;42.672;23.354;2024-03-23T13:21:56;4.07;;;2.15;;
11691;SDS011;33659;42.672;23.354;2024-03-23T13:24:23;3.35;;;1.90;;
11691;SDS011;33659;42.672;23.354;2024-03-23T13:26:51;1.60;;;1.40;;
11691;SDS011;33659;42.672;23.354;2024-03-23T13:29:18;1.33;;;1.23;;
11691;SDS011;33659;42.672;23.354;2024-03-23T13:31:44;1.00;;;1.00;;
11691;SDS011;33659;42.672;23.354;2024-03-23T13:34:11;1.55;;;1.42;;
11691;SDS011;33659;42.672;23.354;2024-03-23T13:36:38;1.92;;;1.17;;
11691;SDS011;33659;42.672;23.354;2024-03-23T13:39:05;3.83;;;2.03;;
11691;SDS011;33659;42.672;23.354;2024-03-23T13:41:35;8.32;;;2.53;;
11691;SDS011;33659;42.672;23.354;2024-03-23T13:44:04;3.28;;;1.80;;
11691;SDS011;33659;42.672;23.354;2024-03-23T13:46:30;1.60;;;1.50;;
11691;SDS011;33659;42.672;23.354;2024-03-23T13:48:57;1.23;;;1.13;;
11691;SDS011;33659;42.672;23.354;2024-03-23T13:51:23;1.00;;;1.00;;
11691;SDS011;33659;42.672;23.354;2024-03-23T13:53:52;0.80;;;0.80;;
11691;SDS011;33659;42.672;23.354;2024-03-23T13:56:18;1.35;;;1.23;;
11691;SDS011;33659;42.672;23.354;2024-03-23T13:58:44;1.50;;;1.00;;
11691;SDS011;33659;42.672;23.354;2024-03-23T14:01:13;1.63;;;1.10;;
11691;SDS011;33659;42.672;23.354;2024-03-23T14:03:40;1.33;;;1.15;;
11691;SDS011;33659;42.672;23.354;2024-03-23T14:06:06;1.88;;;0.93;;
11691;SDS011;33659;42.672;23.354;2024-03-23T14:08:34;1.40;;;1.27;;
11691;SDS011;33659;42.672;23.354;2024-03-23T14:11:01;1.42;;;1.30;;
11691;SDS011;33659;42.672;23.354;2024-03-23T14:13:29;1.13;;;1.02;;
11691;SDS011;33659;42.672;23.354;2024-03-23T14:15:55;2.10;;;1.52;;
11691;SDS011;33659;42.672;23.354;2024-03-23T14:18:23;1.83;;;1.25;;
11691;SDS011;33659;42.672;23.354;2024-03-23T14:20:49;0.93;;;0.93;;
11691;SDS011;33659;42.672;23.354;2024-03-23T14:23:15;1.35;;;1.17;;
11691;SDS011;33659;42.672;23.354;2024-03-23T14:25:41;2.80;;;1.67;;
11691;SDS011;33659;42.672;23.354;2024-03-23T14:28:08;1.35;;;1.23;;
11691;SDS011;33659;42.672;23.354;2024-03-23T14:30:39;1.50;;;1.33;;
11691;SDS011;33659;42.672;23.354;2024-03-23T14:33:06;2.80;;;1.50;;
11691;SDS011;33659;42.672;23.354;2024-03-23T14:35:33;1.40;;;1.30;;
11691;SDS011;33659;42.672;23.354;2024-03-23T14:38:00;1.20;;;0.93;;
11691;SDS011;33659;42.672;23.354;2024-03-23T14:40:26;2.40;;;1.30;;
11691;SDS011;33659;42.672;23.354;2024-03-23T14:42:53;3.08;;;1.38;;
11691;SDS011;33659;42.672;23.354;2024-03-23T14:45:19;1.40;;;1.27;;
11691;SDS011;33659;42.672;23.354;2024-03-23T14:47:45;2.15;;;1.23;;
11691;SDS011;33659;42.672;23.354;2024-03-23T14:50:11;2.20;;;1.80;;
11691;SDS011;33659;42.672;23.354;2024-03-23T14:52:41;2.58;;;1.58;;
11691;SDS011;33659;42.672;23.354;2024-03-23T14:55:09;1.75;;;1.40;;
11691;SDS011;33659;42.672;23.354;2024-03-23T14:57:36;1.50;;;1.40;;
11691;SDS011;33659;42.672;23.354;2024-03-23T15:00:02;1.27;;;1.27;;
11691;SDS011;33659;42.672;23.354;2024-03-23T15:02:30;0.95;;;0.95;;
11691;SDS011;33659;42.672;23.354;2024-03-23T15:04:57;2.30;;;2.00;;
11691;SDS011;33659;42.672;23.354;2024-03-23T15:07:24;2.30;;;1.60;;
11691;SDS011;33659;42.672;23.354;2024-03-23T15:09:51;3.53;;;1.80;;
11691;SDS011;33659;42.672;23.354;2024-03-23T15:12:18;3.22;;;2.92;;
11691;SDS011;33659;42.672;23.354;2024-03-23T15:14:44;2.50;;;1.90;;
11691;SDS011;33659;42.672;23.354;2024-03-23T15:17:11;2.20;;;2.00;;